createdAt,value
2022-09-28T00:03:10.253Z,62.16
2022-09-28T00:08:12.192Z,60.00
2022-09-28T00:13:14.244Z,61.86
2022-09-28T00:18:16.240Z,59.26
2022-09-28T00:23:18.307Z,61.55
2022-09-28T00:28:20.299Z,59.27
2022-09-28T00:33:22.698Z,61.93
2022-09-28T00:38:30.298Z,62.41
2022-09-28T00:43:32.376Z,62.69
2022-09-28T00:48:35.825Z,59.84
2022-09-28T00:53:41.188Z,62.82
2022-09-28T00:58:48.042Z,63.73
2022-09-28T01:03:50.035Z,62.58
2022-09-28T01:08:55.630Z,63.34
2022-09-28T01:13:59.617Z,63.74
2022-09-28T01:19:31.390Z,63.40
2022-09-28T01:24:46.084Z,63.25
2022-09-28T01:30:08.200Z,63.24
2022-09-28T01:35:20.488Z,63.18
2022-09-28T01:40:26.520Z,63.80
2022-09-28T01:45:34.958Z,64.20
2022-09-28T01:50:41.173Z,63.89
2022-09-28T01:55:51.198Z,64.62
2022-09-28T02:01:01.058Z,64.30
2022-09-28T02:06:12.480Z,64.05
2022-09-28T02:11:20.521Z,63.48
2022-09-28T02:16:43.065Z,63.39
2022-09-28T02:22:03.494Z,63.90
2022-09-28T02:27:15.700Z,64.14
2022-09-28T02:32:20.915Z,64.45
2022-09-28T02:37:23.222Z,64.16
2022-09-28T02:42:43.581Z,64.66
2022-09-28T02:48:10.470Z,64.41
2022-09-28T02:53:33.969Z,64.85
2022-09-28T02:58:54.471Z,64.31
2022-09-28T03:04:15.067Z,64.46
2022-09-28T03:09:22.960Z,65.04
2022-09-28T03:14:25.021Z,64.87
2022-09-28T03:19:33.741Z,64.65
2022-09-28T03:24:35.968Z,65.26
2022-09-28T03:29:39.436Z,62.43
2022-09-28T03:34:42.831Z,64.85
2022-09-28T03:39:45.468Z,65.06
2022-09-28T03:44:47.464Z,62.78
2022-09-28T03:49:49.587Z,64.65
2022-09-28T03:54:51.501Z,63.27
2022-09-28T03:59:53.597Z,65.00
2022-09-28T04:04:55.485Z,62.14
2022-09-28T04:09:57.708Z,64.68
2022-09-28T04:14:59.773Z,65.08
2022-09-28T04:20:03.340Z,62.84
2022-09-28T04:25:23.941Z,64.77
2022-09-28T04:30:25.992Z,62.87
2022-09-28T04:35:28.186Z,64.71
2022-09-28T04:40:30.413Z,65.06
2022-09-28T04:45:33.293Z,65.40
2022-09-28T04:50:41.994Z,65.37
2022-09-28T04:56:01.343Z,65.76
2022-09-28T05:01:08.301Z,65.13
2022-09-28T05:06:30.790Z,65.36
2022-09-28T05:11:53.110Z,64.42
2022-09-28T05:16:57.552Z,64.37
2022-09-28T05:22:07.303Z,64.83
2022-09-28T05:27:14.505Z,64.32
2022-09-28T05:32:18.411Z,64.40
2022-09-28T05:37:31.760Z,64.57
2022-09-28T05:42:33.677Z,62.68
2022-09-28T05:47:40.338Z,65.01
2022-09-28T05:52:44.010Z,65.74
2022-09-28T05:57:46.423Z,65.53
2022-09-28T06:03:03.427Z,65.68
2022-09-28T06:08:12.833Z,66.04
2022-09-28T06:13:20.054Z,65.16
2022-09-28T06:18:22.275Z,64.83
2022-09-28T06:23:48.164Z,64.92
2022-09-28T06:28:51.505Z,65.24
2022-09-28T06:33:53.878Z,65.77
2022-09-28T06:38:56.371Z,65.12
2022-09-28T06:43:58.941Z,65.58
2022-09-28T06:49:19.816Z,64.84
2022-09-28T06:54:40.557Z,64.34
2022-09-28T07:00:05.390Z,64.36
2022-09-28T07:05:09.586Z,63.99
2022-09-28T07:10:34.802Z,63.48
2022-09-28T07:16:01.984Z,63.62
2022-09-28T07:21:08.453Z,63.45
2022-09-28T07:26:11.440Z,63.71
2022-09-28T07:31:48.930Z,64.40
2022-09-28T07:37:02.593Z,64.16
2022-09-28T07:42:05.688Z,63.62
2022-09-28T07:47:07.814Z,64.22
2022-09-28T07:52:29.730Z,64.35
2022-09-28T07:58:01.771Z,64.70
2022-09-28T08:03:32.798Z,64.25
2022-09-28T08:08:35.808Z,63.58
2022-09-28T08:13:39.020Z,63.83
2022-09-28T08:19:07.137Z,63.19
2022-09-28T08:24:09.271Z,62.79
2022-09-28T08:29:11.703Z,62.26
2022-09-28T08:34:38.611Z,61.76
2022-09-28T08:40:05.350Z,61.28
2022-09-28T08:45:36.703Z,60.81
2022-09-28T08:51:15.734Z,60.54
2022-09-28T08:57:07.200Z,59.92
2022-09-28T09:02:21.331Z,59.42
2022-09-28T09:07:42.626Z,59.15
2022-09-28T09:13:03.527Z,58.58
2022-09-28T09:18:23.012Z,57.85
2022-09-28T09:24:04.445Z,57.40
2022-09-28T09:29:18.424Z,57.82
2022-09-28T09:34:39.438Z,57.56
2022-09-28T09:40:09.212Z,57.76
2022-09-28T09:45:40.308Z,57.43
2022-09-28T09:51:06.568Z,57.34
2022-09-28T09:56:24.721Z,57.66
2022-09-28T10:01:53.719Z,57.48
2022-09-28T10:07:06.857Z,57.73
2022-09-28T10:12:18.914Z,58.43
2022-09-28T10:17:26.844Z,58.46
2022-09-28T10:22:47.562Z,59.13
2022-09-28T10:27:52.811Z,58.66
2022-09-28T10:32:59.379Z,59.30
2022-09-28T10:38:13.553Z,59.27
2022-09-28T10:43:15.526Z,59.71
2022-09-28T10:48:21.839Z,60.09
2022-09-28T10:53:23.970Z,60.00
2022-09-28T10:58:55.893Z,59.92
2022-09-28T11:04:10.509Z,59.71
2022-09-28T11:09:31.051Z,59.56
2022-09-28T11:14:42.678Z,59.57
2022-09-28T11:20:01.452Z,59.43
2022-09-28T11:25:26.122Z,59.01
2022-09-28T11:30:33.799Z,59.23
2022-09-28T11:36:14.191Z,59.11
2022-09-28T11:41:28.115Z,59.24
2022-09-28T11:46:33.339Z,59.18
2022-09-28T11:51:45.918Z,59.81
2022-09-28T11:56:50.596Z,59.85
2022-09-28T12:02:21.017Z,59.81
2022-09-28T12:08:05.859Z,59.54
2022-09-28T12:13:47.779Z,59.67
2022-09-28T12:18:56.448Z,60.20
2022-09-28T12:24:13.821Z,60.08
2022-09-28T12:29:22.970Z,60.68
2022-09-28T12:34:25.136Z,59.86
2022-09-28T12:39:56.374Z,59.62
2022-09-28T12:45:24.998Z,59.65
2022-09-28T12:50:42.739Z,59.66
2022-09-28T12:56:01.077Z,59.73
2022-09-28T13:01:44.626Z,59.32
2022-09-28T13:07:15.350Z,59.34
2022-09-28T13:12:37.002Z,59.96
2022-09-28T13:17:59.273Z,59.85
2022-09-28T13:23:15.779Z,58.52
2022-09-28T13:28:21.325Z,59.73
2022-09-28T13:33:38.440Z,59.89
2022-09-28T13:38:49.843Z,60.36
2022-09-28T13:44:13.516Z,60.80
2022-09-28T13:49:16.034Z,61.03
2022-09-28T13:54:18.075Z,61.17
2022-09-28T13:59:30.397Z,59.20
2022-09-28T14:05:01.815Z,60.61
2022-09-28T14:10:16.278Z,58.80
2022-09-28T14:15:30.788Z,60.62
2022-09-28T14:20:35.259Z,60.84
2022-09-28T14:25:47.561Z,60.97
2022-09-28T14:30:51.512Z,58.93
2022-09-28T14:36:07.843Z,60.41
2022-09-28T14:41:34.651Z,61.30
2022-09-28T14:46:44.357Z,61.61
2022-09-28T14:51:58.541Z,61.47
2022-09-28T14:57:04.324Z,61.94
2022-09-28T15:02:15.220Z,61.96
2022-09-28T15:07:20.157Z,61.77
2022-09-28T15:12:27.025Z,62.13
2022-09-28T15:17:38.477Z,61.62
2022-09-28T15:22:46.975Z,61.79
2022-09-28T15:27:54.994Z,61.81
2022-09-28T15:33:18.924Z,62.11
2022-09-28T15:38:21.215Z,61.86
2022-09-28T15:43:30.895Z,62.74
2022-09-28T15:48:56.228Z,62.26
2022-09-28T15:54:05.366Z,62.29
2022-09-28T15:59:18.155Z,62.92
2022-09-28T16:04:39.501Z,62.21
2022-09-28T16:10:13.680Z,62.26
2022-09-28T16:15:23.809Z,61.48
2022-09-28T16:20:31.952Z,61.62
2022-09-28T16:25:39.051Z,62.03
2022-09-28T16:31:01.134Z,62.11
2022-09-28T16:36:05.320Z,60.16
2022-09-28T16:41:08.988Z,61.98
2022-09-28T16:46:18.328Z,62.44
2022-09-28T16:51:22.563Z,62.17
2022-09-28T16:56:26.438Z,62.34
2022-09-28T17:01:30.226Z,62.26
2022-09-28T17:06:32.797Z,61.78
2022-09-28T17:11:35.090Z,62.12
2022-09-28T17:22:01.797Z,61.72
2022-09-28T17:27:03.926Z,59.45
2022-09-28T17:32:14.011Z,61.95
2022-09-28T17:37:16.543Z,62.14
2022-09-28T17:42:18.904Z,61.94
2022-09-28T17:47:21.046Z,62.09
2022-09-28T17:52:23.266Z,62.69
2022-09-28T17:57:25.243Z,59.90
2022-09-28T18:02:27.414Z,62.74
2022-09-28T18:07:31.412Z,63.16
2022-09-28T18:12:34.846Z,62.72
2022-09-28T18:17:37.071Z,62.96
2022-09-28T18:22:39.487Z,63.25
2022-09-28T18:27:41.636Z,64.20
2022-09-28T18:32:43.723Z,63.74
2022-09-28T18:37:45.635Z,60.90
2022-09-28T18:42:50.207Z,64.01
2022-09-28T18:47:52.385Z,63.41
2022-09-28T18:52:54.531Z,63.89
2022-09-28T18:57:56.663Z,64.45
2022-09-28T19:03:00.070Z,61.53
2022-09-28T19:08:02.637Z,64.50
2022-09-28T19:13:04.926Z,64.58
2022-09-28T19:18:07.432Z,64.93
2022-09-28T19:23:09.511Z,64.20
2022-09-28T19:28:11.558Z,62.09
2022-09-28T19:33:13.690Z,64.55
2022-09-28T19:38:16.658Z,64.42
2022-09-28T19:43:21.460Z,65.12
2022-09-28T19:48:27.849Z,64.98
2022-09-28T19:53:32.885Z,65.46
2022-09-28T19:58:36.693Z,65.13
2022-09-28T20:03:38.992Z,65.73
2022-09-28T20:08:42.679Z,65.17
2022-09-28T20:13:46.570Z,65.00
2022-09-28T20:18:51.847Z,64.89
2022-09-28T20:23:54.127Z,65.04
2022-09-28T20:28:56.812Z,65.97
2022-09-28T20:33:58.970Z,65.67
2022-09-28T20:39:02.378Z,65.57
2022-09-28T20:44:06.355Z,65.58
2022-09-28T20:49:08.745Z,64.89
2022-09-28T20:54:10.615Z,62.49
2022-09-28T20:59:12.895Z,65.21
2022-09-28T21:04:15.018Z,65.94
2022-09-28T21:09:17.057Z,63.09
2022-09-28T21:14:19.333Z,65.58
2022-09-28T21:19:24.236Z,66.09
2022-09-28T21:24:26.602Z,65.65
2022-09-28T21:29:28.883Z,65.90
2022-09-28T21:34:30.894Z,65.77
2022-09-28T21:39:32.822Z,63.25
2022-09-28T21:44:34.963Z,65.62
2022-09-28T21:49:36.950Z,63.36
2022-09-28T21:54:38.964Z,65.33
2022-09-28T21:59:40.889Z,63.75
2022-09-28T22:04:42.877Z,65.61
2022-09-28T22:09:48.527Z,65.42
2022-09-28T22:14:52.423Z,65.56
2022-09-28T22:19:54.356Z,64.64
2022-09-28T22:24:56.419Z,65.82
2022-09-28T22:29:58.670Z,63.28
2022-09-28T22:35:00.775Z,65.59
2022-09-28T22:40:02.983Z,66.51
2022-09-28T22:45:05.967Z,66.12
2022-09-28T22:50:08.400Z,66.24
2022-09-28T22:55:10.646Z,66.83
2022-09-28T23:00:13.410Z,66.69
2022-09-28T23:05:17.110Z,66.64
2022-09-28T23:10:19.271Z,66.39
2022-09-28T23:15:22.436Z,66.30
2022-09-28T23:20:24.509Z,66.43
2022-09-28T23:25:28.274Z,63.57
2022-09-28T23:30:30.580Z,66.50
2022-09-28T23:35:33.988Z,66.84
2022-09-28T23:40:36.199Z,66.59
2022-09-28T23:45:38.410Z,66.54
2022-09-28T23:50:41.476Z,66.90
2022-09-28T23:55:43.777Z,66.68
